Time;durP1;ratioP1;P1;durP2;ratioP2;P2;SDS_P1;SDS_P2;PMS_P1;PMS_P2;Temp;Humidity;BMP_temperature;BMP_pressure;BME280_temperature;BME280_humidity;BME280_pressure;Samples;Min_cycle;Max_cycle;Signal;HPM_P1;HPM_P2
2023/12/16 00:02:20;;;;;;;7.47;1.80;;;;;;;;;;5263402;28;20029;-81
2023/12/16 00:04:51;;;;;;;9.20;2.10;;;;;;;;;;5263840;28;20532;-82
2023/12/16 00:07:22;;;;;;;6.45;1.95;;;;;;;;;;5263923;28;20480;-82
2023/12/16 00:09:54;;;;;;;6.38;1.90;;;;;;;;;;5263589;28;20028;-83
2023/12/16 00:12:25;;;;;;;7.28;1.70;;;;;;;;;;5263700;28;20030;-82
2023/12/16 00:14:56;;;;;;;6.85;1.85;;;;;;;;;;5263916;28;20036;-82
2023/12/16 00:17:27;;;;;;;8.55;1.48;;;;;;;;;;5262800;28;20094;-82
2023/12/16 00:19:58;;;;;;;7.15;1.77;;;;;;;;;;5264073;28;20399;-82
2023/12/16 00:22:30;;;;;;;8.65;1.67;;;;;;;;;;5263721;28;20070;-82
2023/12/16 00:25:01;;;;;;;7.90;1.70;;;;;;;;;;5262781;28;20389;-82
2023/12/16 00:27:32;;;;;;;9.15;2.30;;;;;;;;;;5263629;28;20013;-82
2023/12/16 00:30:05;;;;;;;9.05;1.50;;;;;;;;;;5262785;28;20051;-82
2023/12/16 00:32:39;;;;;;;6.55;1.77;;;;;;;;;;5262927;28;20020;-81
2023/12/16 00:35:10;;;;;;;8.85;1.45;;;;;;;;;;5263606;28;20369;-82
2023/12/16 00:37:41;;;;;;;8.80;1.67;;;;;;;;;;5262854;28;20024;-82
2023/12/16 00:40:12;;;;;;;5.53;1.23;;;;;;;;;;5263125;28;20025;-82
2023/12/16 00:42:44;;;;;;;8.15;1.23;;;;;;;;;;5263388;28;20039;-82
2023/12/16 00:45:15;;;;;;;9.63;2.47;;;;;;;;;;5262674;28;20048;-82
2023/12/16 00:47:46;;;;;;;10.07;1.67;;;;;;;;;;5263173;28;20021;-82
2023/12/16 00:50:17;;;;;;;9.88;1.60;;;;;;;;;;5263220;28;20017;-82
2023/12/16 00:52:48;;;;;;;8.85;1.20;;;;;;;;;;5262300;28;20017;-82
2023/12/16 00:55:19;;;;;;;7.40;1.40;;;;;;;;;;5263142;28;20033;-82
2023/12/16 00:57:51;;;;;;;6.40;1.00;;;;;;;;;;5263108;28;20017;-82
2023/12/16 01:00:22;;;;;;;10.15;1.85;;;;;;;;;;5261983;28;20033;-82
2023/12/16 01:02:53;;;;;;;8.93;1.67;;;;;;;;;;5263386;28;20013;-81
2023/12/16 01:05:24;;;;;;;9.70;1.10;;;;;;;;;;5262104;28;20504;-81
2023/12/16 01:07:56;;;;;;;8.43;1.25;;;;;;;;;;5262918;28;20088;-81
2023/12/16 01:10:27;;;;;;;5.97;1.30;;;;;;;;;;5262897;28;20029;-81
2023/12/16 01:12:58;;;;;;;6.70;1.75;;;;;;;;;;5262024;28;20099;-81
2023/12/16 01:15:29;;;;;;;9.52;1.42;;;;;;;;;;5262681;28;20513;-80
2023/12/16 01:18:01;;;;;;;5.13;1.20;;;;;;;;;;5262556;28;20020;-81
2023/12/16 01:20:32;;;;;;;8.77;1.63;;;;;;;;;;5261994;28;20352;-81
2023/12/16 01:23:03;;;;;;;5.75;1.17;;;;;;;;;;5262660;28;20016;-81
2023/12/16 01:25:34;;;;;;;6.40;1.00;;;;;;;;;;5262420;28;20080;-82
2023/12/16 01:28:05;;;;;;;7.05;1.20;;;;;;;;;;5261596;28;20095;-81
2023/12/16 01:30:37;;;;;;;8.43;1.38;;;;;;;;;;5262376;28;20121;-82
2023/12/16 01:33:08;;;;;;;11.15;1.80;;;;;;;;;;5262503;28;20017;-81
2023/12/16 01:35:40;;;;;;;11.75;1.35;;;;;;;;;;5261570;28;20056;-82
2023/12/16 01:38:11;;;;;;;6.53;1.25;;;;;;;;;;5262364;28;20021;-81
2023/12/16 01:40:42;;;;;;;8.63;1.15;;;;;;;;;;5260783;28;20075;-80
2023/12/16 01:43:13;;;;;;;6.75;1.08;;;;;;;;;;5262019;28;20357;-81
2023/12/16 01:45:45;;;;;;;8.15;1.13;;;;;;;;;;5262528;28;20032;-82
2023/12/16 01:48:16;;;;;;;9.05;1.60;;;;;;;;;;5261668;28;20031;-82
2023/12/16 01:50:47;;;;;;;11.45;1.38;;;;;;;;;;5262124;28;20112;-82
2023/12/16 01:53:18;;;;;;;6.13;1.38;;;;;;;;;;5261711;28;20514;-82
2023/12/16 01:55:50;;;;;;;4.95;1.00;;;;;;;;;;5260963;28;20041;-82
2023/12/16 01:58:21;;;;;;;8.80;1.38;;;;;;;;;;5261608;28;20032;-81
2023/12/16 02:00:53;;;;;;;8.10;1.70;;;;;;;;;;5262316;28;20021;-82
2023/12/16 02:03:25;;;;;;;7.20;1.25;;;;;;;;;;5260596;28;20025;-81
2023/12/16 02:05:57;;;;;;;8.90;1.45;;;;;;;;;;5261690;28;20426;-81
2023/12/16 02:08:28;;;;;;;6.47;1.00;;;;;;;;;;5261751;28;20013;-81
2023/12/16 02:10:59;;;;;;;7.78;1.63;;;;;;;;;;5260876;28;20103;-81
2023/12/16 02:13:30;;;;;;;11.05;1.40;;;;;;;;;;5261443;28;20025;-81
2023/12/16 02:16:02;;;;;;;7.13;1.30;;;;;;;;;;5260728;28;20504;-81
2023/12/16 02:18:33;;;;;;;9.90;1.50;;;;;;;;;;5261477;28;20096;-81
2023/12/16 02:21:04;;;;;;;12.52;1.23;;;;;;;;;;5261519;28;20091;-81
2023/12/16 02:23:37;;;;;;;7.57;1.67;;;;;;;;;;5260196;28;20491;-81
2023/12/16 02:26:08;;;;;;;10.40;1.30;;;;;;;;;;5261093;28;20442;-81
2023/12/16 02:28:39;;;;;;;9.52;1.52;;;;;;;;;;5261065;28;20033;-81
2023/12/16 02:31:11;;;;;;;9.43;1.15;;;;;;;;;;5260551;28;20418;-81
2023/12/16 02:33:43;;;;;;;9.50;1.20;;;;;;;;;;5261342;28;20017;-81
2023/12/16 02:36:14;;;;;;;10.15;1.75;;;;;;;;;;5261157;28;20039;-81
2023/12/16 02:38:45;;;;;;;9.27;1.42;;;;;;;;;;5260336;28;20021;-81
2023/12/16 02:41:16;;;;;;;5.47;0.98;;;;;;;;;;5261062;28;20028;-81
2023/12/16 02:43:47;;;;;;;7.30;0.93;;;;;;;;;;5261089;28;20017;-81
2023/12/16 02:46:19;;;;;;;8.18;1.25;;;;;;;;;;5260284;28;20055;-81
2023/12/16 02:48:50;;;;;;;8.27;1.55;;;;;;;;;;5261100;28;20444;-81
2023/12/16 02:51:22;;;;;;;12.25;1.27;;;;;;;;;;5259803;28;20029;-81
2023/12/16 02:53:53;;;;;;;7.30;1.23;;;;;;;;;;5260849;28;20017;-81
2023/12/16 02:56:24;;;;;;;6.05;1.20;;;;;;;;;;5260747;28;20391;-81
2023/12/16 02:58:55;;;;;;;7.45;1.40;;;;;;;;;;5260368;28;20021;-81
2023/12/16 03:01:27;;;;;;;9.75;1.77;;;;;;;;;;5260617;28;20491;-81
2023/12/16 03:03:58;;;;;;;11.02;1.67;;;;;;;;;;5260709;28;20418;-81
2023/12/16 03:06:29;;;;;;;8.93;1.40;;;;;;;;;;5259832;28;20040;-81
2023/12/16 03:09:00;;;;;;;8.02;1.60;;;;;;;;;;5260949;28;20369;-81
2023/12/16 03:11:31;;;;;;;8.73;1.85;;;;;;;;;;5260813;28;20036;-80
2023/12/16 03:14:03;;;;;;;9.13;1.55;;;;;;;;;;5259829;28;20013;-81
2023/12/16 03:16:34;;;;;;;6.82;1.63;;;;;;;;;;5260394;28;20041;-81
2023/12/16 03:19:05;;;;;;;8.75;1.30;;;;;;;;;;5259953;28;20048;-81
2023/12/16 03:21:37;;;;;;;6.90;1.30;;;;;;;;;;5260468;28;20397;-81
2023/12/16 03:24:08;;;;;;;12.18;2.00;;;;;;;;;;5260567;28;20021;-80
2023/12/16 03:26:39;;;;;;;10.77;1.52;;;;;;;;;;5259648;28;20307;-81
2023/12/16 03:29:11;;;;;;;11.48;2.40;;;;;;;;;;5260599;28;20036;-81
2023/12/16 03:31:42;;;;;;;10.85;1.20;;;;;;;;;;5260581;28;20033;-81
2023/12/16 03:34:13;;;;;;;10.65;1.55;;;;;;;;;;5259974;28;20507;-81
2023/12/16 03:36:45;;;;;;;11.43;1.67;;;;;;;;;;5260497;28;20036;-81
2023/12/16 03:39:16;;;;;;;9.82;1.70;;;;;;;;;;5260497;28;20025;-81
2023/12/16 03:41:47;;;;;;;6.80;1.40;;;;;;;;;;5259693;28;20160;-80
2023/12/16 03:44:18;;;;;;;6.38;1.58;;;;;;;;;;5260326;28;20024;-82
2023/12/16 03:46:49;;;;;;;7.75;1.50;;;;;;;;;;5260510;28;20436;-81
2023/12/16 03:49:20;;;;;;;6.22;1.30;;;;;;;;;;5259695;28;20021;-81
2023/12/16 03:51:55;;;;;;;7.30;1.65;;;;;;;;;;5260570;28;20143;-82
2023/12/16 03:54:27;;;;;;;6.10;1.27;;;;;;;;;;5259676;28;20090;-82
2023/12/16 03:56:58;;;;;;;9.23;1.70;;;;;;;;;;5260266;28;20062;-82
2023/12/16 03:59:29;;;;;;;7.20;1.75;;;;;;;;;;5260407;28;20418;-81
2023/12/16 04:02:00;;;;;;;7.40;1.10;;;;;;;;;;5259418;28;20104;-80
2023/12/16 04:04:32;;;;;;;8.10;1.85;;;;;;;;;;5261268;28;20399;-81
2023/12/16 04:07:04;;;;;;;9.05;1.75;;;;;;;;;;5264273;28;20043;-81
2023/12/16 04:09:35;;;;;;;7.78;1.55;;;;;;;;;;5263341;28;20021;-80
2023/12/16 04:12:06;;;;;;;8.45;2.03;;;;;;;;;;5264043;28;20017;-81
2023/12/16 04:14:38;;;;;;;8.27;1.83;;;;;;;;;;5263875;28;20043;-80
2023/12/16 04:17:09;;;;;;;6.75;1.80;;;;;;;;;;5263010;28;20040;-80
2023/12/16 04:19:48;;;;;;;8.27;1.52;;;;;;;;;;5264003;28;20163;-80
2023/12/16 04:22:20;;;;;;;6.47;1.15;;;;;;;;;;5263064;28;20111;-80
2023/12/16 04:24:57;;;;;;;9.25;1.23;;;;;;;;;;5263677;28;20155;-80
2023/12/16 04:27:28;;;;;;;9.98;1.73;;;;;;;;;;5263543;28;20365;-80
2023/12/16 04:29:59;;;;;;;7.70;1.45;;;;;;;;;;5262877;28;20104;-81
2023/12/16 04:32:31;;;;;;;10.18;1.70;;;;;;;;;;5263500;28;20483;-81
2023/12/16 04:35:02;;;;;;;8.95;1.50;;;;;;;;;;5263519;28;20472;-81
2023/12/16 04:37:33;;;;;;;5.07;1.30;;;;;;;;;;5262677;28;20021;-81
2023/12/16 04:40:05;;;;;;;10.93;1.30;;;;;;;;;;5261999;28;20025;-81
2023/12/16 04:42:36;;;;;;;8.23;1.58;;;;;;;;;;5263236;28;20039;-81
2023/12/16 04:45:08;;;;;;;9.52;1.38;;;;;;;;;;5261211;28;20360;-81
2023/12/16 04:47:39;;;;;;;9.93;1.50;;;;;;;;;;5263312;28;20023;-80
2023/12/16 04:50:10;;;;;;;10.00;1.45;;;;;;;;;;5263227;28;20024;-80
2023/12/16 04:52:41;;;;;;;15.43;1.85;;;;;;;;;;5262301;28;20094;-80
2023/12/16 04:55:12;;;;;;;7.93;1.75;;;;;;;;;;5263227;28;20090;-80
2023/12/16 04:57:44;;;;;;;11.07;2.63;;;;;;;;;;5262328;28;20121;-80
2023/12/16 05:00:16;;;;;;;9.05;1.70;;;;;;;;;;5262882;28;20053;-81
2023/12/16 05:02:47;;;;;;;9.63;2.08;;;;;;;;;;5262913;28;20467;-80
2023/12/16 05:05:18;;;;;;;9.88;2.45;;;;;;;;;;5262096;28;20086;-80
2023/12/16 05:07:49;;;;;;;12.18;1.52;;;;;;;;;;5263005;28;20388;-80
2023/12/16 05:10:21;;;;;;;8.60;2.25;;;;;;;;;;5262852;28;20025;-80
2023/12/16 05:12:52;;;;;;;9.25;1.80;;;;;;;;;;5262133;28;20100;-81
2023/12/16 05:15:23;;;;;;;8.25;1.50;;;;;;;;;;5261911;28;20498;-80
2023/12/16 05:17:54;;;;;;;7.30;1.52;;;;;;;;;;5263186;28;20480;-80
2023/12/16 05:20:25;;;;;;;9.73;1.70;;;;;;;;;;5261739;28;20098;-81
2023/12/16 05:22:57;;;;;;;9.40;1.67;;;;;;;;;;5262819;28;20032;-80
2023/12/16 05:25:28;;;;;;;11.20;1.33;;;;;;;;;;5262325;28;20041;-81
2023/12/16 05:27:59;;;;;;;8.77;1.73;;;;;;;;;;5261604;28;20074;-81
2023/12/16 05:30:31;;;;;;;10.77;1.98;;;;;;;;;;5262279;28;20021;-81
2023/12/16 05:33:02;;;;;;;7.65;1.58;;;;;;;;;;5261487;28;20017;-81
2023/12/16 05:35:33;;;;;;;10.15;1.67;;;;;;;;;;5262258;28;20401;-81
2023/12/16 05:38:05;;;;;;;10.23;1.60;;;;;;;;;;5262347;28;20570;-81
2023/12/16 05:40:36;;;;;;;8.35;1.67;;;;;;;;;;5261350;28;20021;-80
2023/12/16 05:43:08;;;;;;;9.38;1.60;;;;;;;;;;5262256;28;20045;-81
2023/12/16 05:45:39;;;;;;;7.15;1.70;;;;;;;;;;5262186;28;20024;-80
2023/12/16 05:48:10;;;;;;;8.23;1.27;;;;;;;;;;5261067;28;20036;-80
2023/12/16 05:50:42;;;;;;;10.23;1.42;;;;;;;;;;5262006;28;20470;-80
2023/12/16 05:53:13;;;;;;;8.77;1.45;;;;;;;;;;5261861;28;20024;-81
2023/12/16 05:55:47;;;;;;;9.38;1.10;;;;;;;;;;5261055;28;20025;-80
2023/12/16 05:58:18;;;;;;;9.93;1.85;;;;;;;;;;5261833;28;20013;-82
2023/12/16 06:00:49;;;;;;;8.82;1.45;;;;;;;;;;5261475;28;20017;-81
2023/12/16 06:03:20;;;;;;;7.10;1.33;;;;;;;;;;5261563;28;20028;-80
2023/12/16 06:05:51;;;;;;;11.20;1.50;;;;;;;;;;5262049;28;20075;-81
2023/12/16 06:08:23;;;;;;;8.20;1.50;;;;;;;;;;5260695;28;20021;-80
2023/12/16 06:10:54;;;;;;;7.53;1.50;;;;;;;;;;5262059;28;20017;-81
2023/12/16 06:13:25;;;;;;;13.27;2.17;;;;;;;;;;5261352;28;20021;-81
2023/12/16 06:15:56;;;;;;;10.90;1.52;;;;;;;;;;5260637;28;20078;-81
2023/12/16 06:18:27;;;;;;;8.32;1.67;;;;;;;;;;5261482;28;20017;-81
2023/12/16 06:20:58;;;;;;;9.60;1.30;;;;;;;;;;5261352;28;20020;-81
2023/12/16 06:23:30;;;;;;;10.80;1.48;;;;;;;;;;5260509;28;20100;-81
2023/12/16 06:26:01;;;;;;;10.43;2.08;;;;;;;;;;5261229;28;20518;-81
2023/12/16 06:28:32;;;;;;;10.15;1.98;;;;;;;;;;5260574;28;20017;-80
2023/12/16 06:31:03;;;;;;;8.32;1.52;;;;;;;;;;5260679;28;20017;-81
2023/12/16 06:33:35;;;;;;;8.27;1.40;;;;;;;;;;5261136;28;20021;-81
2023/12/16 06:36:07;;;;;;;9.25;2.17;;;;;;;;;;5260500;28;20056;-80
2023/12/16 06:38:38;;;;;;;9.20;1.45;;;;;;;;;;5261220;28;20480;-81
2023/12/16 06:41:09;;;;;;;9.93;1.42;;;;;;;;;;5261414;28;20039;-81
2023/12/16 06:43:40;;;;;;;9.50;1.48;;;;;;;;;;5263453;28;20017;-81
2023/12/16 06:46:12;;;;;;;7.75;1.30;;;;;;;;;;5261985;28;20049;-81
2023/12/16 06:48:43;;;;;;;8.90;1.50;;;;;;;;;;5260988;28;20039;-81
2023/12/16 06:51:14;;;;;;;7.32;1.48;;;;;;;;;;5260221;28;20452;-81
2023/12/16 06:53:45;;;;;;;12.05;1.38;;;;;;;;;;5261224;28;20424;-81
2023/12/16 06:56:16;;;;;;;12.75;2.17;;;;;;;;;;5261117;28;20083;-81
2023/12/16 06:58:48;;;;;;;8.58;1.34;;;;;;;;;;5260332;28;20028;-82
2023/12/16 07:01:21;;;;;;;10.10;1.77;;;;;;;;;;5260950;28;20028;-81
2023/12/16 07:03:52;;;;;;;9.60;1.27;;;;;;;;;;5261192;28;20020;-81
2023/12/16 07:06:23;;;;;;;9.52;1.42;;;;;;;;;;5259993;28;20112;-81
2023/12/16 07:08:54;;;;;;;8.63;1.30;;;;;;;;;;5261291;28;20021;-81
2023/12/16 07:11:26;;;;;;;9.20;1.23;;;;;;;;;;5259875;28;20101;-81
2023/12/16 07:13:57;;;;;;;11.27;1.33;;;;;;;;;;5260860;28;20037;-81
2023/12/16 07:16:30;;;;;;;7.68;1.13;;;;;;;;;;5260708;28;20037;-81
2023/12/16 07:19:01;;;;;;;9.77;1.25;;;;;;;;;;5260235;28;20025;-80
2023/12/16 07:21:33;;;;;;;9.06;1.32;;;;;;;;;;5260937;28;20021;-81
2023/12/16 07:24:04;;;;;;;10.52;1.50;;;;;;;;;;5260845;28;20036;-80
2023/12/16 07:26:35;;;;;;;6.50;1.10;;;;;;;;;;5259839;28;20045;-81
2023/12/16 07:29:06;;;;;;;7.80;1.25;;;;;;;;;;5260484;28;20039;-81
2023/12/16 07:31:38;;;;;;;10.23;1.65;;;;;;;;;;5260668;28;20478;-81
2023/12/16 07:34:10;;;;;;;11.25;1.65;;;;;;;;;;5259747;28;20025;-81
2023/12/16 07:36:41;;;;;;;7.13;1.33;;;;;;;;;;5260564;28;20476;-81
2023/12/16 07:39:12;;;;;;;8.30;1.15;;;;;;;;;;5260354;28;20023;-81
2023/12/16 07:41:43;;;;;;;9.98;1.83;;;;;;;;;;5264283;28;20036;-81
2023/12/16 07:44:14;;;;;;;8.93;1.55;;;;;;;;;;5264688;28;20574;-80
2023/12/16 07:46:46;;;;;;;12.73;1.60;;;;;;;;;;5263496;28;20107;-80
2023/12/16 07:49:19;;;;;;;8.98;1.30;;;;;;;;;;5264430;28;20025;-81
2023/12/16 07:51:51;;;;;;;12.20;1.45;;;;;;;;;;5264399;28;20013;-80
2023/12/16 07:54:22;;;;;;;7.75;1.00;;;;;;;;;;5262370;28;20043;-81
2023/12/16 07:56:53;;;;;;;7.65;1.38;;;;;;;;;;5262327;28;20047;-80
2023/12/16 07:59:25;;;;;;;7.40;1.00;;;;;;;;;;5261609;28;20028;-80
2023/12/16 08:01:57;;;;;;;11.82;1.90;;;;;;;;;;5261236;28;20013;-81
2023/12/16 08:04:28;;;;;;;7.38;1.13;;;;;;;;;;5261917;28;20009;-80
2023/12/16 08:06:59;;;;;;;10.68;1.70;;;;;;;;;;5262231;28;20025;-81
2023/12/16 08:09:31;;;;;;;7.43;1.40;;;;;;;;;;5261334;28;20029;-80
2023/12/16 08:12:03;;;;;;;8.85;1.10;;;;;;;;;;5263952;28;20065;-80
2023/12/16 08:14:34;;;;;;;8.88;1.35;;;;;;;;;;5263041;28;20083;-80
2023/12/16 08:17:06;;;;;;;8.35;1.00;;;;;;;;;;5263660;28;20013;-80
2023/12/16 08:19:38;;;;;;;9.77;1.23;;;;;;;;;;5263645;28;20013;-83
2023/12/16 08:22:09;;;;;;;7.90;1.42;;;;;;;;;;5263143;28;20499;-81
2023/12/16 08:24:41;;;;;;;10.45;1.80;;;;;;;;;;5263751;28;20500;-81
2023/12/16 08:27:12;;;;;;;8.98;1.08;;;;;;;;;;5263533;28;20028;-81
2023/12/16 08:29:46;;;;;;;7.90;1.40;;;;;;;;;;5262628;28;20048;-81
2023/12/16 08:32:17;;;;;;;9.57;1.75;;;;;;;;;;5263622;28;20033;-81
2023/12/16 08:34:48;;;;;;;11.68;1.63;;;;;;;;;;5263417;28;20028;-82
2023/12/16 08:37:19;;;;;;;7.38;1.13;;;;;;;;;;5263576;28;20087;-80
2023/12/16 08:39:51;;;;;;;5.22;1.23;;;;;;;;;;5263639;28;20112;-78
2023/12/16 08:42:22;;;;;;;7.72;0.90;;;;;;;;;;5263048;28;20071;-79
2023/12/16 08:44:53;;;;;;;9.77;1.65;;;;;;;;;;5262848;28;20040;-78
2023/12/16 08:47:24;;;;;;;8.35;1.23;;;;;;;;;;5262656;28;20029;-78
2023/12/16 08:49:55;;;;;;;8.00;0.93;;;;;;;;;;5262035;28;20028;-79
2023/12/16 08:52:27;;;;;;;9.27;1.60;;;;;;;;;;5262670;28;20472;-80
2023/12/16 08:54:58;;;;;;;11.43;1.40;;;;;;;;;;5263014;28;20384;-79
2023/12/16 08:57:29;;;;;;;10.38;1.55;;;;;;;;;;5262291;28;20029;-79
2023/12/16 09:00:00;;;;;;;10.73;2.22;;;;;;;;;;5262866;28;20025;-79
2023/12/16 09:02:32;;;;;;;9.43;1.00;;;;;;;;;;5262721;28;20032;-79
2023/12/16 09:05:03;;;;;;;10.48;1.05;;;;;;;;;;5262041;28;20099;-79
2023/12/16 09:07:34;;;;;;;9.40;1.10;;;;;;;;;;5262655;28;20476;-79
2023/12/16 09:10:05;;;;;;;10.68;2.33;;;;;;;;;;5262847;28;20380;-79
2023/12/16 09:12:37;;;;;;;10.00;1.27;;;;;;;;;;5261463;28;20021;-81
2023/12/16 09:15:08;;;;;;;6.75;1.48;;;;;;;;;;5261824;28;20037;-82
2023/12/16 09:17:39;;;;;;;10.70;1.90;;;;;;;;;;5262499;28;20024;-81
2023/12/16 09:20:11;;;;;;;9.10;1.50;;;;;;;;;;5262318;28;20131;-80
2023/12/16 09:22:42;;;;;;;13.15;1.67;;;;;;;;;;5262469;28;20089;-79
2023/12/16 09:25:13;;;;;;;9.73;2.08;;;;;;;;;;5261281;28;20131;-81
2023/12/16 09:27:45;;;;;;;7.68;0.95;;;;;;;;;;5262684;28;20028;-80
2023/12/16 09:30:18;;;;;;;8.85;1.50;;;;;;;;;;5262672;28;20043;-78
2023/12/16 09:32:49;;;;;;;9.48;1.10;;;;;;;;;;5261559;28;20025;-81
2023/12/16 09:35:20;;;;;;;11.35;1.92;;;;;;;;;;5262157;28;20178;-81
2023/12/16 09:37:51;;;;;;;6.78;0.98;;;;;;;;;;5262183;28;20032;-82
2023/12/16 09:40:23;;;;;;;11.27;1.30;;;;;;;;;;5261276;28;20020;-81
2023/12/16 09:42:56;;;;;;;8.40;1.10;;;;;;;;;;5262373;28;20125;-82
2023/12/16 09:45:27;;;;;;;9.80;1.30;;;;;;;;;;5262008;28;20053;-79
2023/12/16 09:47:58;;;;;;;12.40;1.90;;;;;;;;;;5261039;28;20095;-79
2023/12/16 09:50:30;;;;;;;7.38;0.80;;;;;;;;;;5261858;28;20043;-80
2023/12/16 09:53:02;;;;;;;12.88;1.48;;;;;;;;;;5261081;28;20029;-85
2023/12/16 09:55:33;;;;;;;9.43;1.05;;;;;;;;;;5261563;28;20029;-82
2023/12/16 09:58:06;;;;;;;9.82;1.23;;;;;;;;;;5261642;28;20136;-82
2023/12/16 10:00:40;;;;;;;9.63;1.45;;;;;;;;;;5260970;28;20476;-81
2023/12/16 10:03:15;;;;;;;9.90;1.58;;;;;;;;;;5260778;28;20138;-84
2023/12/16 10:05:48;;;;;;;14.80;1.92;;;;;;;;;;5261855;28;20017;-80
2023/12/16 10:08:19;;;;;;;11.40;1.63;;;;;;;;;;5260790;28;20028;-80
2023/12/16 10:11:00;;;;;;;7.00;1.63;;;;;;;;;;5261464;28;20021;-81
2023/12/16 10:13:32;;;;;;;8.65;1.73;;;;;;;;;;5261571;28;20020;-79
2023/12/16 10:16:15;;;;;;;9.18;1.73;;;;;;;;;;5260210;28;20035;-80
2023/12/16 10:18:48;;;;;;;10.25;1.42;;;;;;;;;;5261648;28;20028;-80
2023/12/16 10:21:20;;;;;;;11.07;1.60;;;;;;;;;;5260945;28;20021;-79
2023/12/16 10:23:52;;;;;;;10.48;2.33;;;;;;;;;;5261563;28;20480;-79
2023/12/16 10:26:23;;;;;;;9.63;1.90;;;;;;;;;;5260984;28;20048;-80
2023/12/16 10:28:55;;;;;;;14.88;2.80;;;;;;;;;;5261111;28;20128;-79
2023/12/16 10:31:26;;;;;;;11.02;1.95;;;;;;;;;;5260694;28;20020;-81
2023/12/16 10:34:00;;;;;;;10.15;1.95;;;;;;;;;;5261462;28;20017;-77
2023/12/16 10:36:31;;;;;;;8.32;2.22;;;;;;;;;;5260161;28;20547;-78
2023/12/16 10:39:03;;;;;;;12.35;2.33;;;;;;;;;;5261051;28;20029;-82
2023/12/16 10:41:34;;;;;;;9.18;2.10;;;;;;;;;;5261397;28;20044;-81
2023/12/16 10:44:05;;;;;;;9.57;2.60;;;;;;;;;;5261061;28;20406;-82
2023/12/16 10:46:37;;;;;;;9.65;2.35;;;;;;;;;;5261279;28;20024;-82
2023/12/16 10:49:09;;;;;;;12.73;2.00;;;;;;;;;;5260594;28;20024;-82
2023/12/16 10:51:43;;;;;;;11.07;2.08;;;;;;;;;;5261608;28;20021;-82
2023/12/16 10:54:22;;;;;;;12.63;2.90;;;;;;;;;;5261748;28;20388;-81
2023/12/16 10:56:58;;;;;;;10.77;2.05;;;;;;;;;;5261332;28;20098;-83
2023/12/16 10:59:33;;;;;;;12.57;2.90;;;;;;;;;;5261771;28;20009;-82
2023/12/16 11:02:09;;;;;;;11.35;2.63;;;;;;;;;;5261569;28;20067;-82
2023/12/16 11:04:42;;;;;;;12.02;2.08;;;;;;;;;;5260251;28;20016;-82
2023/12/16 11:07:15;;;;;;;10.02;2.60;;;;;;;;;;5260824;28;20018;-82
2023/12/16 11:09:47;;;;;;;12.52;3.92;;;;;;;;;;5261229;28;20040;-82
2023/12/16 11:12:18;;;;;;;8.73;2.00;;;;;;;;;;5260485;28;20016;-81
2023/12/16 11:14:54;;;;;;;10.70;2.50;;;;;;;;;;5264283;28;20079;-83
2023/12/16 11:17:35;;;;;;;9.60;2.40;;;;;;;;;;5264057;28;20040;-82
2023/12/16 11:20:11;;;;;;;11.55;2.67;;;;;;;;;;5265324;28;20476;-82
2023/12/16 11:22:50;;;;;;;12.15;3.05;;;;;;;;;;5264924;28;20024;-82
2023/12/16 11:25:21;;;;;;;12.23;2.90;;;;;;;;;;5263893;28;20183;-82
2023/12/16 11:27:55;;;;;;;11.85;2.40;;;;;;;;;;5265195;28;20104;-82
2023/12/16 11:30:26;;;;;;;12.63;3.63;;;;;;;;;;5264526;28;20025;-82
2023/12/16 11:32:58;;;;;;;11.50;2.90;;;;;;;;;;5264307;28;20353;-82
2023/12/16 11:35:35;;;;;;;13.10;3.10;;;;;;;;;;5264804;28;20029;-82
2023/12/16 11:38:07;;;;;;;12.15;2.80;;;;;;;;;;5264849;28;20432;-82
2023/12/16 11:40:40;;;;;;;13.35;2.28;;;;;;;;;;5264136;28;20047;-83
2023/12/16 11:43:12;;;;;;;17.33;3.55;;;;;;;;;;5264968;28;20025;-83
2023/12/16 11:45:44;;;;;;;14.18;2.78;;;;;;;;;;5264029;28;20021;-82
2023/12/16 11:48:16;;;;;;;14.38;2.90;;;;;;;;;;5264654;28;20021;-81
2023/12/16 11:50:47;;;;;;;9.75;2.60;;;;;;;;;;5264483;28;20029;-81
2023/12/16 11:53:19;;;;;;;12.32;2.85;;;;;;;;;;5263711;28;20017;-82
2023/12/16 11:55:50;;;;;;;14.25;2.65;;;;;;;;;;5264221;28;20043;-82
2023/12/16 11:58:23;;;;;;;13.38;2.47;;;;;;;;;;5264010;28;20116;-81
2023/12/16 12:00:55;;;;;;;10.40;2.08;;;;;;;;;;5263877;28;20033;-82
2023/12/16 12:03:26;;;;;;;10.80;2.25;;;;;;;;;;5263954;28;20488;-82
2023/12/16 12:05:57;;;;;;;12.82;3.08;;;;;;;;;;5264103;28;20057;-81
2023/12/16 12:08:29;;;;;;;12.75;3.45;;;;;;;;;;5263486;28;20491;-82
2023/12/16 12:11:00;;;;;;;14.82;3.92;;;;;;;;;;5264155;28;20013;-82
2023/12/16 12:13:31;;;;;;;16.65;3.40;;;;;;;;;;5263399;28;20025;-82
2023/12/16 12:16:03;;;;;;;11.00;3.15;;;;;;;;;;5263730;28;20484;-82
2023/12/16 12:18:34;;;;;;;11.35;3.38;;;;;;;;;;5263936;28;20018;-82
2023/12/16 12:21:06;;;;;;;16.75;3.30;;;;;;;;;;5262970;28;20036;-82
2023/12/16 12:23:38;;;;;;;15.60;3.83;;;;;;;;;;5266108;28;20369;-83
2023/12/16 12:26:10;;;;;;;14.63;3.10;;;;;;;;;;5264599;28;20487;-82
2023/12/16 12:28:41;;;;;;;15.07;3.63;;;;;;;;;;5265745;28;20063;-82
2023/12/16 12:31:13;;;;;;;14.65;2.70;;;;;;;;;;5264389;28;20092;-83
2023/12/16 12:33:44;;;;;;;16.00;3.55;;;;;;;;;;5263734;28;20024;-82
2023/12/16 12:36:15;;;;;;;13.35;3.15;;;;;;;;;;5262751;28;20036;-82
2023/12/16 12:38:53;;;;;;;17.88;3.10;;;;;;;;;;5263676;28;20100;-82
2023/12/16 12:41:25;;;;;;;10.90;2.53;;;;;;;;;;5263335;28;20044;-82
2023/12/16 12:43:56;;;;;;;12.07;3.40;;;;;;;;;;5262845;28;20056;-83
2023/12/16 12:46:27;;;;;;;13.57;2.88;;;;;;;;;;5263086;28;20029;-83
2023/12/16 12:48:58;;;;;;;9.05;2.42;;;;;;;;;;5262714;28;20713;-83
2023/12/16 12:51:29;;;;;;;12.35;3.17;;;;;;;;;;5263091;28;20052;-83
2023/12/16 12:54:01;;;;;;;10.65;3.70;;;;;;;;;;5263199;28;20032;-82
2023/12/16 12:56:32;;;;;;;12.80;3.17;;;;;;;;;;5262223;28;20059;-83
2023/12/16 12:59:03;;;;;;;12.85;3.70;;;;;;;;;;5263202;28;20099;-83
2023/12/16 13:01:34;;;;;;;11.38;3.10;;;;;;;;;;5263169;28;20027;-82
2023/12/16 13:04:05;;;;;;;10.96;3.16;;;;;;;;;;5262218;28;20444;-82
2023/12/16 13:06:37;;;;;;;10.13;3.22;;;;;;;;;;5262762;28;20475;-83
2023/12/16 13:09:08;;;;;;;13.55;4.47;;;;;;;;;;5263032;28;20472;-83
2023/12/16 13:11:39;;;;;;;10.68;3.28;;;;;;;;;;5262289;28;20854;-83
2023/12/16 13:14:11;;;;;;;13.43;3.13;;;;;;;;;;5263036;28;20016;-83
2023/12/16 13:16:42;;;;;;;12.52;2.90;;;;;;;;;;5262975;28;20126;-82
2023/12/16 13:19:13;;;;;;;12.85;3.70;;;;;;;;;;5262253;28;20024;-82
2023/12/16 13:21:44;;;;;;;12.60;3.50;;;;;;;;;;5262671;28;20043;-82
2023/12/16 13:24:15;;;;;;;11.50;3.13;;;;;;;;;;5261979;28;20472;-82
2023/12/16 13:26:47;;;;;;;10.98;3.33;;;;;;;;;;5262562;28;20400;-82
2023/12/16 13:29:21;;;;;;;12.75;3.60;;;;;;;;;;5262577;28;20104;-82
2023/12/16 13:31:52;;;;;;;12.45;3.38;;;;;;;;;;5262126;28;20039;-82
2023/12/16 13:34:24;;;;;;;10.43;2.83;;;;;;;;;;5262235;28;20036;-82
2023/12/16 13:36:55;;;;;;;11.55;3.45;;;;;;;;;;5262712;28;20029;-82
2023/12/16 13:39:26;;;;;;;11.43;2.97;;;;;;;;;;5261435;28;20024;-82
2023/12/16 13:41:57;;;;;;;11.85;3.20;;;;;;;;;;5262324;28;20021;-83
2023/12/16 13:44:28;;;;;;;12.60;3.20;;;;;;;;;;5262245;28;20028;-82
2023/12/16 13:47:00;;;;;;;15.30;3.63;;;;;;;;;;5261712;28;20067;-82
2023/12/16 13:49:31;;;;;;;13.10;3.67;;;;;;;;;;5262616;28;20395;-82
2023/12/16 13:52:07;;;;;;;13.60;3.55;;;;;;;;;;5261269;28;20028;-82
2023/12/16 13:54:38;;;;;;;14.45;3.03;;;;;;;;;;5262181;28;20017;-82
2023/12/16 13:57:10;;;;;;;12.85;2.72;;;;;;;;;;5261828;28;20044;-81
2023/12/16 13:59:41;;;;;;;14.35;3.53;;;;;;;;;;5261265;28;20511;-83
2023/12/16 14:02:12;;;;;;;11.27;2.88;;;;;;;;;;5261976;28;20062;-81
2023/12/16 14:04:44;;;;;;;11.40;3.08;;;;;;;;;;5261710;28;20017;-82
2023/12/16 14:07:15;;;;;;;9.82;2.75;;;;;;;;;;5261277;28;20029;-82
2023/12/16 14:09:46;;;;;;;8.48;2.25;;;;;;;;;;5261751;28;20070;-82
2023/12/16 14:12:18;;;;;;;12.05;4.05;;;;;;;;;;5261779;28;20492;-82
2023/12/16 14:14:49;;;;;;;10.23;3.17;;;;;;;;;;5260970;28;20021;-82
2023/12/16 14:17:20;;;;;;;13.25;3.20;;;;;;;;;;5261726;28;20040;-82
2023/12/16 14:19:51;;;;;;;13.63;3.97;;;;;;;;;;5261936;28;20456;-81
2023/12/16 14:22:23;;;;;;;15.35;4.03;;;;;;;;;;5260581;28;20021;-82
2023/12/16 14:24:54;;;;;;;13.45;4.32;;;;;;;;;;5264865;28;20116;-82
2023/12/16 14:27:25;;;;;;;11.20;3.17;;;;;;;;;;5261938;28;20040;-82
2023/12/16 14:29:56;;;;;;;9.57;3.55;;;;;;;;;;5261779;28;20045;-82
2023/12/16 14:32:27;;;;;;;15.32;4.32;;;;;;;;;;5261249;28;20024;-81
2023/12/16 14:34:59;;;;;;;12.88;4.78;;;;;;;;;;5260687;28;20353;-81
2023/12/16 14:37:30;;;;;;;13.02;3.85;;;;;;;;;;5261420;28;20029;-81
2023/12/16 14:40:04;;;;;;;13.48;3.88;;;;;;;;;;5261020;28;20063;-82
2023/12/16 14:42:35;;;;;;;15.13;4.25;;;;;;;;;;5260404;28;20039;-83
2023/12/16 14:45:07;;;;;;;13.93;4.70;;;;;;;;;;5261090;28;20020;-82
2023/12/16 14:47:38;;;;;;;15.90;4.90;;;;;;;;;;5261155;28;20087;-82
2023/12/16 14:50:09;;;;;;;14.52;4.18;;;;;;;;;;5260068;28;20028;-82
2023/12/16 14:52:40;;;;;;;15.52;4.60;;;;;;;;;;5261512;28;20095;-82
2023/12/16 14:55:12;;;;;;;13.77;4.43;;;;;;;;;;5261112;28;20112;-82
2023/12/16 14:57:43;;;;;;;10.10;4.20;;;;;;;;;;5260663;28;20017;-83
2023/12/16 15:00:14;;;;;;;11.85;4.15;;;;;;;;;;5261197;28;20021;-83
2023/12/16 15:02:45;;;;;;;11.68;4.05;;;;;;;;;;5260285;28;20024;-83